Time;durP1;ratioP1;P1;durP2;ratioP2;P2;SDS_P1;SDS_P2;PMS_P1;PMS_P2;Temp;Humidity;BMP_temperature;BMP_pressure;BME280_temperature;BME280_humidity;BME280_pressure;Samples;Min_cycle;Max_cycle;Signal;HPM_P1;HPM_P2
2021/01/10 00:01:03;;;;;;;48.27;30.10;;;0.00;94.80;;;;;;4313540;33;20273;-63
2021/01/10 00:03:32;;;;;;;43.87;30.03;;;0.00;94.80;;;;;;4326211;33;20157;-62
2021/01/10 00:06:14;;;;;;;55.67;33.30;;;0.00;94.90;;;;;;4326432;33;20215;-62
2021/01/10 00:08:42;;;;;;;49.23;32.27;;;0.00;94.90;;;;;;4327063;33;20250;-62
2021/01/10 00:11:13;;;;;;;51.40;32.20;;;0.00;94.80;;;;;;4312437;33;20174;-62
2021/01/10 00:13:44;;;;;;;53.93;32.93;;;0.00;94.60;;;;;;4317065;33;20165;-62
2021/01/10 00:16:12;;;;;;;57.73;37.37;;;-0.10;94.40;;;;;;4315457;33;20233;-62
2021/01/10 00:18:40;;;;;;;55.73;33.83;;;-0.20;94.30;;;;;;4316393;33;20490;-64
2021/01/10 00:21:15;;;;;;;57.30;36.77;;;-0.30;94.20;;;;;;4310093;33;20225;-63
2021/01/10 00:23:44;;;;;;;48.30;31.73;;;-0.30;94.20;;;;;;4314593;33;20171;-62
2021/01/10 00:26:25;;;;;;;53.10;33.13;;;-0.30;94.20;;;;;;4316844;33;20150;-62
2021/01/10 00:29:00;;;;;;;48.13;30.10;;;-0.40;94.10;;;;;;4314173;33;20204;-62
2021/01/10 00:31:32;;;;;;;39.37;22.60;;;-0.40;94.20;;;;;;4316483;33;20172;-61
2021/01/10 00:34:04;;;;;;;31.63;20.50;;;-0.40;94.20;;;;;;4310897;33;20192;-62
2021/01/10 00:36:34;;;;;;;33.47;20.50;;;-0.50;94.20;;;;;;4316705;33;20215;-62
2021/01/10 00:39:09;;;;;;;32.40;18.80;;;-0.50;94.20;;;;;;4316043;33;20622;-63
2021/01/10 00:41:52;;;;;;;38.33;22.67;;;-0.50;94.20;;;;;;4316627;33;20680;-63
2021/01/10 00:44:20;;;;;;;35.63;22.57;;;-0.50;94.20;;;;;;4316265;33;20169;-63
2021/01/10 00:46:49;;;;;;;43.57;23.90;;;-0.60;94.20;;;;;;4308587;33;20346;-61
2021/01/10 00:49:20;;;;;;;37.33;23.93;;;-0.60;94.20;;;;;;4314426;33;20233;-61
2021/01/10 00:51:49;;;;;;;38.27;23.67;;;-0.60;94.20;;;;;;4315980;33;20196;-62
2021/01/10 00:54:22;;;;;;;39.80;25.97;;;-0.60;94.30;;;;;;4315877;33;20165;-62
2021/01/10 00:56:51;;;;;;;42.03;25.90;;;-0.60;94.40;;;;;;4315584;33;20220;-62
2021/01/10 00:59:19;;;;;;;36.10;23.20;;;-0.60;94.40;;;;;;4315772;33;20245;-62
2021/01/10 01:01:49;;;;;;;35.83;22.83;;;-0.60;94.40;;;;;;4322427;33;20158;-62
2021/01/10 01:04:20;;;;;;;37.30;21.13;;;-0.60;94.30;;;;;;4317316;33;20157;-62
2021/01/10 01:06:54;;;;;;;29.77;19.60;;;-0.70;94.40;;;;;;4311441;33;20157;-62
2021/01/10 01:09:23;;;;;;;30.00;19.17;;;-0.70;94.30;;;;;;4315645;33;20165;-62
2021/01/10 01:11:53;;;;;;;30.50;18.97;;;-0.70;94.30;;;;;;4316418;33;20185;-62
2021/01/10 01:14:20;;;;;;;33.87;20.77;;;-0.70;94.30;;;;;;4315493;33;20146;-62
2021/01/10 01:16:52;;;;;;;31.83;20.90;;;-0.70;94.30;;;;;;4315836;33;20606;-62
2021/01/10 01:19:29;;;;;;;31.57;20.87;;;-0.80;94.30;;;;;;4314308;33;20189;-62
2021/01/10 01:22:00;;;;;;;32.43;20.80;;;-0.80;94.20;;;;;;4313329;33;20235;-62
2021/01/10 01:24:31;;;;;;;33.07;20.83;;;-0.80;94.20;;;;;;4315786;33;20165;-62
2021/01/10 01:26:57;;;;;;;34.27;22.27;;;-0.80;94.20;;;;;;4317108;33;20567;-62
2021/01/10 01:29:33;;;;;;;37.93;23.40;;;-0.80;94.30;;;;;;4316025;33;20209;-62
2021/01/10 01:32:17;;;;;;;36.03;23.13;;;-0.90;94.30;;;;;;4315332;33;20550;-64
2021/01/10 01:34:56;;;;;;;37.87;23.90;;;-0.90;94.30;;;;;;4313592;33;20204;-62
2021/01/10 01:37:25;;;;;;;36.97;24.30;;;-0.80;94.30;;;;;;4316179;33;20141;-62
2021/01/10 01:39:56;;;;;;;34.20;21.63;;;-0.90;94.30;;;;;;4316055;33;20481;-61
2021/01/10 01:42:25;;;;;;;43.67;25.90;;;-0.90;94.30;;;;;;4315527;33;20308;-62
2021/01/10 01:44:53;;;;;;;41.17;24.10;;;-0.90;94.40;;;;;;4315643;33;20169;-62
2021/01/10 01:47:24;;;;;;;31.53;21.73;;;-0.80;95.10;;;;;;4314602;33;20266;-62
2021/01/10 01:49:52;;;;;;;32.87;19.50;;;-0.50;95.70;;;;;;4315411;33;20237;-62
2021/01/10 01:52:18;;;;;;;30.97;19.37;;;-0.30;95.80;;;;;;4314640;33;20187;-62
2021/01/10 01:54:48;;;;;;;28.73;18.80;;;-0.10;95.90;;;;;;4315655;33;20165;-61
2021/01/10 01:57:25;;;;;;;31.00;20.07;;;0.10;96.00;;;;;;4315085;33;20212;-62
2021/01/10 01:59:53;;;;;;;33.27;21.60;;;0.20;96.60;;;;;;4314625;33;20142;-61
2021/01/10 02:02:28;;;;;;;28.90;19.37;;;0.50;97.30;;;;;;4315862;33;20185;-61
2021/01/10 02:05:02;;;;;;;29.83;18.23;;;0.50;97.40;;;;;;4308899;33;20195;-63
2021/01/10 02:07:40;;;;;;;30.97;19.87;;;0.60;97.40;;;;;;4310932;33;20184;-63
2021/01/10 02:10:15;;;;;;;29.10;18.77;;;0.70;97.30;;;;;;4317048;33;20436;-62
2021/01/10 02:12:51;;;;;;;35.03;20.33;;;0.70;97.30;;;;;;4317207;33;20165;-61
2021/01/10 02:15:21;;;;;;;31.43;19.57;;;0.70;97.20;;;;;;4320593;33;20258;-61
2021/01/10 02:18:05;;;;;;;29.80;20.13;;;0.70;97.20;;;;;;4314724;33;20257;-61
2021/01/10 02:20:41;;;;;;;35.30;19.73;;;0.60;97.10;;;;;;4317417;33;20177;-62
2021/01/10 02:23:10;;;;;;;28.57;19.07;;;0.50;96.60;;;;;;4320899;33;20211;-62
2021/01/10 02:25:52;;;;;;;30.93;20.53;;;0.40;95.50;;;;;;4314993;33;20515;-61
2021/01/10 02:28:23;;;;;;;24.03;17.37;;;0.20;95.00;;;;;;4327605;33;20221;-62
2021/01/10 02:30:53;;;;;;;31.60;19.67;;;0.10;94.70;;;;;;4318691;33;20154;-61
2021/01/10 02:33:34;;;;;;;41.53;19.47;;;-0.10;94.60;;;;;;4321044;33;22917;-61
2021/01/10 02:36:20;;;;;;;25.00;16.50;;;-0.20;94.70;;;;;;4313538;33;20153;-62
2021/01/10 02:38:55;;;;;;;25.53;16.10;;;-0.30;94.80;;;;;;4301691;33;20519;-62
2021/01/10 02:41:42;;;;;;;27.73;17.53;;;-0.30;94.70;;;;;;4311772;33;20594;-61
2021/01/10 02:44:21;;;;;;;28.40;17.43;;;-0.40;94.50;;;;;;4314572;33;20457;-61
2021/01/10 02:46:51;;;;;;;23.87;17.50;;;-0.40;94.40;;;;;;4314472;33;20154;-61
2021/01/10 02:49:20;;;;;;;25.93;16.57;;;-0.40;94.50;;;;;;4310846;33;20297;-61
2021/01/10 02:51:46;;;;;;;25.57;18.33;;;-0.50;94.50;;;;;;4311389;33;20205;-62
2021/01/10 02:54:18;;;;;;;22.97;16.17;;;-0.50;94.50;;;;;;4313253;33;20258;-61
2021/01/10 02:57:00;;;;;;;23.03;16.87;;;-0.50;94.50;;;;;;4318245;33;20169;-61
2021/01/10 02:59:33;;;;;;;28.60;17.07;;;-0.60;94.50;;;;;;4313348;33;20177;-61
2021/01/10 03:02:02;;;;;;;28.73;18.80;;;-0.60;94.60;;;;;;4316134;33;20150;-62
2021/01/10 03:04:32;;;;;;;26.60;17.43;;;-0.60;94.60;;;;;;4315009;33;20193;-61
2021/01/10 03:07:08;;;;;;;24.40;15.73;;;-0.60;94.80;;;;;;4314436;33;20173;-61
2021/01/10 03:09:44;;;;;;;26.60;16.33;;;-0.60;94.60;;;;;;4315116;33;20172;-62
2021/01/10 03:12:26;;;;;;;26.57;16.87;;;-0.60;94.50;;;;;;4314613;33;20224;-62
2021/01/10 03:14:57;;;;;;;27.70;17.30;;;-0.70;94.60;;;;;;4315095;33;20146;-62
2021/01/10 03:17:33;;;;;;;29.03;17.50;;;-0.70;94.50;;;;;;4306251;33;20185;-62
2021/01/10 03:20:13;;;;;;;26.07;17.40;;;-0.70;94.60;;;;;;4314593;33;20513;-62
2021/01/10 03:22:44;;;;;;;21.93;15.70;;;-0.60;94.70;;;;;;4323593;33;20173;-62
2021/01/10 03:25:11;;;;;;;24.17;16.10;;;-0.60;94.70;;;;;;4313948;33;20192;-62
2021/01/10 03:27:38;;;;;;;32.77;17.13;;;-0.60;94.70;;;;;;4314830;33;20188;-62
2021/01/10 03:30:19;;;;;;;26.80;16.50;;;-0.60;94.70;;;;;;4315120;33;20315;-62
2021/01/10 03:32:52;;;;;;;29.60;18.00;;;-0.60;94.60;;;;;;4314648;33;20233;-62
2021/01/10 03:35:20;;;;;;;25.43;17.13;;;-0.60;94.50;;;;;;4312931;33;20297;-60
2021/01/10 03:37:59;;;;;;;24.40;16.17;;;-0.70;94.50;;;;;;4314825;33;20149;-61
2021/01/10 03:40:25;;;;;;;25.57;16.60;;;-0.70;94.60;;;;;;4315055;33;20215;-62
2021/01/10 03:42:53;;;;;;;29.80;17.83;;;-0.60;94.70;;;;;;4311897;33;20237;-61
2021/01/10 03:45:27;;;;;;;25.87;18.33;;;-0.50;95.00;;;;;;4314148;33;20157;-61
2021/01/10 03:47:53;;;;;;;24.73;18.17;;;-0.40;95.10;;;;;;4324959;33;20211;-62
2021/01/10 03:50:22;;;;;;;31.20;19.03;;;-0.30;95.20;;;;;;4318008;33;20605;-61
2021/01/10 03:52:50;;;;;;;32.37;18.67;;;-0.30;95.30;;;;;;4314876;33;20186;-61
2021/01/10 03:55:19;;;;;;;24.17;16.97;;;-0.20;95.40;;;;;;4314554;33;20172;-61
2021/01/10 03:57:57;;;;;;;28.03;19.10;;;-0.10;95.60;;;;;;4315110;33;20179;-61
2021/01/10 04:00:26;;;;;;;24.23;17.47;;;0.00;95.60;;;;;;4330663;33;20172;-61
2021/01/10 04:02:56;;;;;;;25.53;17.33;;;0.00;95.90;;;;;;4333744;33;20578;-62
2021/01/10 04:05:26;;;;;;;23.67;17.23;;;0.10;95.60;;;;;;4318008;33;20197;-61
2021/01/10 04:08:01;;;;;;;30.87;18.43;;;0.00;95.40;;;;;;4319382;33;20185;-61
2021/01/10 04:10:34;;;;;;;27.67;17.50;;;0.00;95.20;;;;;;4317694;33;20551;-61
2021/01/10 04:13:09;;;;;;;29.30;17.20;;;0.00;95.10;;;;;;4317320;33;20154;-61
2021/01/10 04:15:38;;;;;;;20.73;16.20;;;-0.10;95.00;;;;;;4314279;33;20172;-62
2021/01/10 04:18:09;;;;;;;28.90;17.20;;;-0.10;94.90;;;;;;4317609;33;20591;-61
2021/01/10 04:20:36;;;;;;;26.57;17.07;;;-0.10;94.80;;;;;;4307977;33;20158;-61
2021/01/10 04:23:02;;;;;;;25.97;17.33;;;-0.30;94.90;;;;;;4316571;33;20257;-61
2021/01/10 04:25:33;;;;;;;30.17;19.33;;;-0.30;95.20;;;;;;4316535;33;20215;-62
2021/01/10 04:28:04;;;;;;;26.03;17.73;;;-0.20;95.50;;;;;;4313379;33;20161;-61
2021/01/10 04:30:33;;;;;;;31.67;19.13;;;-0.10;95.50;;;;;;4316836;33;20606;-61
2021/01/10 04:33:00;;;;;;;22.70;16.70;;;-0.10;95.50;;;;;;4317298;33;20153;-60
2021/01/10 04:35:27;;;;;;;24.43;15.93;;;0.00;95.50;;;;;;4312910;33;20490;-61
2021/01/10 04:37:53;;;;;;;25.87;17.60;;;0.00;95.40;;;;;;4318645;33;20300;-61
2021/01/10 04:40:25;;;;;;;24.77;16.20;;;0.00;95.20;;;;;;4322806;33;20153;-61
2021/01/10 04:42:53;;;;;;;23.77;16.13;;;-0.10;95.00;;;;;;4323026;33;20169;-61
2021/01/10 04:45:24;;;;;;;23.63;16.70;;;-0.10;94.80;;;;;;4328410;33;20307;-62
2021/01/10 04:47:52;;;;;;;23.03;16.07;;;-0.20;94.60;;;;;;4326105;33;20178;-61
2021/01/10 04:50:29;;;;;;;29.97;16.90;;;-0.30;94.40;;;;;;4324203;33;20185;-62
2021/01/10 04:53:01;;;;;;;25.43;16.87;;;-0.40;94.30;;;;;;4315293;33;20145;-61
2021/01/10 04:55:29;;;;;;;26.80;16.33;;;-0.40;94.30;;;;;;4315812;33;20154;-61
2021/01/10 05:04:42;;;;;;;25.30;17.13;;;-0.60;94.30;;;;;;4314940;33;20329;-61
2021/01/10 05:07:09;;;;;;;28.37;17.73;;;-0.60;94.40;;;;;;4312498;33;20255;-61
2021/01/10 05:09:43;;;;;;;26.37;17.07;;;-0.70;94.30;;;;;;4315362;33;20158;-61
2021/01/10 05:12:12;;;;;;;25.40;16.70;;;-0.70;94.30;;;;;;4316301;33;20154;-61
2021/01/10 05:14:43;;;;;;;25.60;17.20;;;-0.80;94.30;;;;;;4315848;33;20260;-61
2021/01/10 05:17:20;;;;;;;31.23;17.87;;;-0.80;94.40;;;;;;4309498;33;20542;-62
2021/01/10 05:19:49;;;;;;;28.87;18.33;;;-0.80;94.40;;;;;;4310952;33;20150;-61
2021/01/10 05:22:16;;;;;;;27.47;18.53;;;-0.80;94.40;;;;;;4316629;33;20176;-61
2021/01/10 05:24:42;;;;;;;23.17;17.63;;;-0.80;94.40;;;;;;4314853;33;20217;-61
2021/01/10 05:27:16;;;;;;;27.23;16.97;;;-0.90;94.40;;;;;;4312914;33;20213;-61
2021/01/10 05:29:43;;;;;;;29.30;17.90;;;-0.90;94.40;;;;;;4314750;33;20213;-61
2021/01/10 05:32:12;;;;;;;29.83;17.93;;;-0.90;94.40;;;;;;4315776;33;20302;-61
2021/01/10 05:35:01;;;;;;;32.47;17.77;;;-0.90;94.40;;;;;;4315481;33;20193;-61
2021/01/10 05:37:27;;;;;;;23.97;16.43;;;-0.90;94.40;;;;;;4313375;33;20216;-61
2021/01/10 05:39:55;;;;;;;25.43;16.70;;;-0.90;94.40;;;;;;4315640;33;20173;-61
2021/01/10 05:45:58;;;;;;;33.37;19.00;;;-1.00;94.40;;;;;;4311120;33;20196;-61
2021/01/10 05:48:27;;;;;;;33.33;19.10;;;-1.00;94.50;;;;;;4316781;33;20169;-61
2021/01/10 05:51:09;;;;;;;27.17;17.83;;;-1.00;94.50;;;;;;4315159;33;20292;-62
2021/01/10 05:53:43;;;;;;;27.67;18.30;;;-1.00;94.60;;;;;;4315837;33;20157;-62
2021/01/10 05:56:23;;;;;;;32.77;20.73;;;-1.00;94.50;;;;;;4315686;33;20158;-61
2021/01/10 05:59:12;;;;;;;25.40;18.03;;;-1.00;94.50;;;;;;4314812;33;20225;-61
2021/01/10 06:01:53;;;;;;;27.77;18.87;;;-1.00;94.50;;;;;;4315179;33;20304;-62
2021/01/10 06:04:26;;;;;;;28.80;17.53;;;-1.00;94.50;;;;;;4315813;33;20153;-62
2021/01/10 06:06:56;;;;;;;27.47;18.07;;;-1.00;94.60;;;;;;4316269;33;20248;-62
2021/01/10 06:09:49;;;;;;;34.03;20.70;;;-0.90;94.80;;;;;;4315881;33;20217;-62
2021/01/10 06:12:28;;;;;;;28.80;19.03;;;-0.90;94.80;;;;;;4303659;33;20212;-62
2021/01/10 06:15:13;;;;;;;27.63;18.30;;;-0.80;94.90;;;;;;4312032;33;20161;-61
2021/01/10 06:17:44;;;;;;;26.30;17.93;;;-0.80;94.80;;;;;;4315331;33;20221;-61
2021/01/10 06:20:26;;;;;;;30.33;18.80;;;-0.80;94.80;;;;;;4309317;33;20192;-62
2021/01/10 06:22:55;;;;;;;27.63;18.50;;;-0.80;94.80;;;;;;4305109;33;20607;-62
2021/01/10 06:25:33;;;;;;;27.73;18.60;;;-0.70;94.80;;;;;;4301349;33;20574;-62
2021/01/10 06:28:08;;;;;;;26.23;17.70;;;-0.80;94.80;;;;;;4307729;33;20154;-63
2021/01/10 06:30:41;;;;;;;31.00;18.97;;;-0.70;94.90;;;;;;4316814;33;20593;-62
2021/01/10 06:33:16;;;;;;;21.47;17.40;;;-0.70;94.90;;;;;;4307986;33;20212;-62
2021/01/10 06:35:58;;;;;;;29.13;20.77;;;-0.70;95.00;;;;;;4309426;33;20219;-64
2021/01/10 06:38:34;;;;;;;32.13;19.27;;;-0.60;95.00;;;;;;4317027;33;20614;-62
2021/01/10 06:41:30;;;;;;;33.00;18.13;;;-0.50;95.20;;;;;;4315878;33;20164;-63
2021/01/10 06:43:59;;;;;;;26.20;17.67;;;-0.50;95.20;;;;;;4306430;33;20229;-60
2021/01/10 06:46:26;;;;;;;28.90;18.60;;;-0.40;95.20;;;;;;4314411;33;20299;-65
2021/01/10 06:48:53;;;;;;;30.90;18.03;;;-0.30;95.30;;;;;;4314342;33;20448;-62
2021/01/10 06:51:22;;;;;;;25.87;18.00;;;-0.30;95.40;;;;;;4316112;33;20173;-63
2021/01/10 06:54:04;;;;;;;29.77;17.80;;;-0.30;95.30;;;;;;4314515;33;20227;-62
2021/01/10 06:56:30;;;;;;;27.87;17.73;;;-0.20;95.30;;;;;;4314572;33;20177;-64
2021/01/10 06:59:08;;;;;;;27.57;16.47;;;-0.20;95.20;;;;;;4314098;33;20161;-64
2021/01/10 07:02:08;;;;;;;28.70;18.00;;;-0.20;95.30;;;;;;4313743;33;20252;-62
2021/01/10 07:05:04;;;;;;;37.13;17.73;;;-0.20;95.30;;;;;;4271531;33;20174;-60
2021/01/10 07:07:40;;;;;;;33.40;18.13;;;-0.20;95.20;;;;;;4273342;33;20178;-64
2021/01/10 07:10:13;;;;;;;24.33;17.20;;;-0.20;95.10;;;;;;4282987;33;20159;-62
2021/01/10 07:12:39;;;;;;;26.00;18.17;;;-0.20;95.10;;;;;;4275573;33;20205;-61
2021/01/10 07:15:28;;;;;;;25.73;17.07;;;-0.20;95.10;;;;;;4281143;33;20226;-62
2021/01/10 07:18:10;;;;;;;27.17;18.60;;;-0.10;95.30;;;;;;4280379;33;20198;-63
2021/01/10 07:20:42;;;;;;;24.57;17.77;;;-0.10;95.40;;;;;;4265315;33;20195;-63
2021/01/10 07:23:55;;;;;;;26.67;18.93;;;0.00;95.40;;;;;;4276917;33;20655;-61
2021/01/10 07:26:44;;;;;;;22.80;17.77;;;0.00;95.40;;;;;;4275694;33;20259;-64
2021/01/10 07:29:38;;;;;;;24.90;18.20;;;0.10;95.40;;;;;;4276561;33;20241;-61
2021/01/10 07:32:06;;;;;;;27.50;19.17;;;0.10;95.40;;;;;;4272758;33;20194;-61
2021/01/10 07:35:02;;;;;;;25.67;17.67;;;0.10;95.40;;;;;;4282694;33;20209;-64
2021/01/10 07:37:31;;;;;;;24.50;16.80;;;0.10;95.40;;;;;;4316607;33;20219;-64
2021/01/10 07:40:02;;;;;;;25.87;17.00;;;0.10;95.40;;;;;;4314770;33;20240;-63
2021/01/10 07:42:30;;;;;;;25.50;17.70;;;0.20;95.40;;;;;;4315981;33;20161;-64
2021/01/10 07:45:00;;;;;;;23.43;17.30;;;0.20;95.60;;;;;;4315834;33;20221;-62
2021/01/10 07:47:43;;;;;;;22.77;17.00;;;0.30;95.60;;;;;;4316153;33;20177;-63
2021/01/10 07:50:19;;;;;;;28.20;18.50;;;0.40;95.70;;;;;;4315107;33;20230;-63
2021/01/10 07:52:56;;;;;;;27.40;16.17;;;0.40;95.70;;;;;;4317709;33;20200;-62
2021/01/10 07:55:28;;;;;;;27.17;17.73;;;0.40;95.70;;;;;;4314789;33;20591;-62
2021/01/10 07:58:16;;;;;;;28.23;18.00;;;0.50;95.70;;;;;;4315025;33;20560;-62
2021/01/10 08:00:55;;;;;;;22.73;16.27;;;0.50;95.70;;;;;;4315579;33;20172;-61
2021/01/10 08:03:29;;;;;;;25.13;16.70;;;0.60;95.80;;;;;;4316585;33;20165;-65
2021/01/10 08:06:03;;;;;;;24.33;16.30;;;0.60;95.80;;;;;;4316628;33;20225;-65
2021/01/10 08:08:44;;;;;;;24.70;15.80;;;0.60;95.80;;;;;;4316373;33;20617;-62
2021/01/10 08:11:29;;;;;;;23.00;15.70;;;0.60;95.80;;;;;;4314690;33;20604;-62
2021/01/10 08:13:56;;;;;;;25.37;15.87;;;0.70;95.80;;;;;;4316330;33;20158;-63
2021/01/10 08:16:34;;;;;;;27.10;16.73;;;0.70;95.80;;;;;;4316419;33;20538;-62
2021/01/10 08:19:16;;;;;;;26.03;15.93;;;0.70;95.90;;;;;;4314979;33;20217;-63
2021/01/10 08:21:43;;;;;;;27.27;17.40;;;0.80;96.00;;;;;;4310646;33;20188;-62
2021/01/10 08:24:09;;;;;;;23.23;16.53;;;0.70;96.00;;;;;;4316306;33;20182;-63
2021/01/10 08:26:49;;;;;;;20.27;15.03;;;0.80;96.40;;;;;;4315146;33;20247;-64
2021/01/10 08:29:22;;;;;;;21.73;14.60;;;0.80;96.00;;;;;;4315420;33;20227;-63
2021/01/10 08:31:51;;;;;;;23.73;16.20;;;0.90;96.00;;;;;;4317267;33;20513;-65
2021/01/10 08:34:20;;;;;;;23.83;15.40;;;0.90;96.00;;;;;;4314907;33;20173;-62
2021/01/10 08:36:54;;;;;;;22.07;15.77;;;0.90;95.90;;;;;;4316815;33;20208;-61
2021/01/10 08:39:22;;;;;;;22.00;15.07;;;0.90;95.90;;;;;;4313831;33;20201;-62
2021/01/10 08:41:50;;;;;;;23.53;15.47;;;0.90;95.80;;;;;;4315036;33;20239;-63
2021/01/10 08:44:25;;;;;;;20.37;14.60;;;1.00;95.80;;;;;;4310501;33;20162;-61
2021/01/10 08:46:58;;;;;;;22.20;15.70;;;1.00;96.00;;;;;;4315044;33;20542;-62
2021/01/10 08:49:27;;;;;;;20.17;13.20;;;1.10;95.60;;;;;;4309586;33;20225;-64
2021/01/10 08:51:57;;;;;;;23.80;15.03;;;1.10;95.50;;;;;;4313023;33;20166;-68
2021/01/10 08:54:29;;;;;;;23.70;15.33;;;1.10;95.40;;;;;;4313406;33;20482;-62
2021/01/10 08:57:05;;;;;;;21.73;13.93;;;1.20;95.40;;;;;;4313865;33;20275;-62
2021/01/10 08:59:43;;;;;;;16.10;12.47;;;1.20;95.30;;;;;;4311853;33;20161;-63
2021/01/10 09:02:11;;;;;;;22.60;12.90;;;1.20;95.20;;;;;;4315411;33;20211;-65
2021/01/10 09:04:49;;;;;;;20.87;12.77;;;1.30;95.20;;;;;;4314122;33;20541;-66
2021/01/10 09:07:25;;;;;;;24.03;15.77;;;1.30;95.00;;;;;;4316410;33;20583;-62
2021/01/10 09:09:54;;;;;;;17.13;11.87;;;1.40;95.00;;;;;;4315748;33;20180;-64
2021/01/10 09:12:30;;;;;;;18.33;13.27;;;1.40;95.00;;;;;;4314821;33;20173;-64
2021/01/10 09:15:08;;;;;;;17.37;13.30;;;1.50;95.20;;;;;;4315969;33;20225;-62
2021/01/10 09:17:37;;;;;;;16.60;12.03;;;1.60;95.20;;;;;;4315787;33;20160;-62
2021/01/10 09:20:12;;;;;;;19.37;12.00;;;1.70;95.20;;;;;;4312187;33;20173;-63
2021/01/10 09:22:59;;;;;;;19.93;12.80;;;1.80;95.20;;;;;;4314815;33;20548;-63
2021/01/10 09:25:34;;;;;;;19.70;12.97;;;1.90;95.30;;;;;;4314231;33;20149;-62
2021/01/10 09:28:14;;;;;;;17.70;12.53;;;1.90;95.20;;;;;;4313466;33;20233;-65
2021/01/10 09:30:51;;;;;;;20.47;14.10;;;2.00;95.20;;;;;;4310587;33;20181;-67
2021/01/10 09:33:25;;;;;;;20.07;13.93;;;1.90;95.10;;;;;;4314715;33;20172;-64
2021/01/10 09:35:59;;;;;;;16.90;12.73;;;1.90;95.00;;;;;;4310263;33;20155;-61
2021/01/10 09:38:45;;;;;;;20.93;13.63;;;1.80;94.90;;;;;;4313632;33;20167;-64
2021/01/10 09:41:21;;;;;;;20.33;13.20;;;1.70;94.90;;;;;;4312579;33;20663;-64
2021/01/10 09:43:49;;;;;;;19.47;12.80;;;1.70;95.10;;;;;;4314779;33;20221;-64
2021/01/10 09:46:30;;;;;;;23.13;14.23;;;1.70;95.40;;;;;;4313419;33;20254;-63
2021/01/10 09:48:58;;;;;;;18.70;13.07;;;1.90;96.30;;;;;;4309242;33;20208;-66
2021/01/10 09:51:43;;;;;;;20.60;13.80;;;2.20;97.10;;;;;;4313556;33;20219;-62
2021/01/10 09:54:13;;;;;;;16.90;12.27;;;2.30;96.50;;;;;;4315100;33;20281;-65
2021/01/10 09:57:17;;;;;;;20.97;14.70;;;2.30;95.80;;;;;;4315499;33;20191;-62
2021/01/10 09:59:45;;;;;;;22.77;12.83;;;2.10;95.20;;;;;;4314893;33;20165;-65
2021/01/10 10:02:25;;;;;;;16.77;12.77;;;2.00;95.10;;;;;;4314575;33;20220;-62
2021/01/10 10:04:52;;;;;;;21.20;13.33;;;1.90;95.00;;;;;;4314843;33;20142;-64
2021/01/10 10:07:34;;;;;;;20.87;15.93;;;1.80;95.10;;;;;;4316127;33;20158;-63
2021/01/10 10:10:02;;;;;;;19.67;14.73;;;1.90;95.20;;;;;;4315369;33;20563;-63
2021/01/10 10:12:28;;;;;;;18.40;13.17;;;1.90;95.30;;;;;;4314117;33;20598;-62
2021/01/10 10:14:57;;;;;;;17.73;13.37;;;1.90;95.40;;;;;;4315895;33;20157;-65
2021/01/10 10:17:30;;;;;;;20.00;12.47;;;2.00;95.40;;;;;;4313679;33;20154;-63
2021/01/10 10:19:58;;;;;;;18.83;12.50;;;2.00;95.40;;;;;;4314306;33;20201;-62
2021/01/10 10:22:27;;;;;;;15.07;10.63;;;1.90;95.50;;;;;;4306327;33;20155;-65
2021/01/10 10:24:54;;;;;;;19.60;12.67;;;2.00;95.50;;;;;;4310238;33;20161;-63
2021/01/10 10:27:26;;;;;;;19.30;12.60;;;2.00;95.60;;;;;;4308579;33;20201;-62
2021/01/10 10:32:45;;;;;;;19.23;13.67;;;2.10;95.80;;;;;;4274722;33;20154;-62
2021/01/10 10:35:15;;;;;;;17.13;11.83;;;2.20;95.80;;;;;;4279601;33;20165;-66
2021/01/10 10:37:43;;;;;;;16.07;11.67;;;2.30;95.80;;;;;;4278487;33;20158;-66
2021/01/10 10:40:11;;;;;;;17.90;11.80;;;2.40;96.00;;;;;;4283963;33;20293;-65
2021/01/10 10:42:37;;;;;;;20.80;11.93;;;2.50;96.00;;;;;;4280588;33;20154;-64
2021/01/10 10:45:10;;;;;;;17.20;11.40;;;2.50;96.00;;;;;;4283738;33;20166;-66
2021/01/10 10:47:38;;;;;;;22.33;12.97;;;2.60;96.00;;;;;;4279734;33;20182;-64
2021/01/10 10:50:09;;;;;;;19.07;12.23;;;2.70;96.00;;;;;;4273256;33;20239;-64
2021/01/10 10:52:36;;;;;;;18.03;11.87;;;2.70;96.00;;;;;;4272059;33;20170;-63
2021/01/10 10:55:03;;;;;;;16.00;11.23;;;2.80;96.00;;;;;;4272862;33;20795;-62
2021/01/10 10:57:32;;;;;;;17.33;11.03;;;2.80;96.00;;;;;;4302830;33;20154;-62
2021/01/10 11:00:01;;;;;;;16.37;10.37;;;2.90;96.10;;;;;;4311615;33;20149;-62
2021/01/10 11:02:30;;;;;;;16.43;10.53;;;3.00;96.40;;;;;;4315669;33;20153;-62
2021/01/10 11:05:03;;;;;;;15.60;9.53;;;3.20;96.70;;;;;;4313589;33;20219;-62
2021/01/10 11:07:31;;;;;;;14.93;9.30;;;3.30;96.80;;;;;;4310682;33;20190;-62
2021/01/10 11:09:57;;;;;;;10.83;8.23;;;3.50;96.80;;;;;;4312613;33;20256;-62
2021/01/10 11:12:24;;;;;;;13.20;8.30;;;3.60;96.50;;;;;;4311153;33;20177;-62
2021/01/10 11:14:53;;;;;;;12.90;8.07;;;3.60;96.40;;;;;;4311808;33;20174;-62
2021/01/10 11:17:19;;;;;;;13.93;6.93;;;3.70;96.10;;;;;;4314922;33;20227;-61
2021/01/10 11:19:51;;;;;;;14.30;8.47;;;3.70;96.10;;;;;;4314053;33;20180;-62
2021/01/10 11:22:19;;;;;;;12.73;7.97;;;3.80;96.20;;;;;;4314962;33;20605;-62
2021/01/10 11:24:45;;;;;;;16.67;7.53;;;3.90;96.10;;;;;;4313424;33;20256;-62
2021/01/10 11:27:13;;;;;;;14.07;8.40;;;4.00;96.00;;;;;;4312062;33;20157;-62
2021/01/10 11:29:45;;;;;;;14.37;8.97;;;4.00;96.00;;;;;;4314037;33;21313;-62
2021/01/10 11:32:16;;;;;;;14.83;8.33;;;4.10;95.70;;;;;;4312089;33;20207;-63
2021/01/10 11:34:50;;;;;;;11.53;8.83;;;4.20;95.60;;;;;;4311928;33;20208;-62
2021/01/10 11:37:21;;;;;;;13.40;7.80;;;4.20;95.50;;;;;;4313186;33;20191;-62
2021/01/10 11:39:52;;;;;;;11.07;7.93;;;4.20;95.40;;;;;;4310444;33;20186;-63
2021/01/10 11:42:24;;;;;;;14.40;7.50;;;4.20;95.40;;;;;;4312607;33;20243;-62
2021/01/10 11:44:53;;;;;;;14.93;8.93;;;4.30;95.30;;;;;;4314091;33;20185;-61
2021/01/10 11:47:33;;;;;;;14.77;8.23;;;4.40;95.10;;;;;;4312267;33;20149;-64
2021/01/10 11:50:03;;;;;;;9.90;7.70;;;4.40;94.90;;;;;;4310698;33;20199;-62
2021/01/10 11:52:30;;;;;;;13.63;8.03;;;4.50;94.70;;;;;;4313717;33;20203;-62
2021/01/10 11:55:03;;;;;;;14.00;7.47;;;4.60;94.70;;;;;;4313932;33;20221;-62
2021/01/10 11:57:34;;;;;;;13.53;8.20;;;4.70;94.00;;;;;;4313827;33;20223;-62
2021/01/10 12:00:03;;;;;;;9.23;6.40;;;4.80;93.10;;;;;;4316339;33;20154;-62
2021/01/10 12:02:30;;;;;;;13.73;7.40;;;4.90;93.00;;;;;;4308253;33;20171;-62
2021/01/10 12:05:02;;;;;;;12.23;7.20;;;4.90;92.20;;;;;;4315693;33;20161;-62
2021/01/10 12:07:33;;;;;;;13.23;7.27;;;4.90;91.40;;;;;;4316166;33;20248;-61
2021/01/10 12:10:03;;;;;;;11.13;6.70;;;4.90;91.30;;;;;;4312625;33;20176;-62
2021/01/10 12:12:34;;;;;;;11.63;6.80;;;5.00;90.60;;;;;;4313084;33;20148;-62
2021/01/10 12:15:04;;;;;;;10.40;6.77;;;5.10;90.20;;;;;;4313437;33;20619;-62
2021/01/10 12:17:30;;;;;;;11.57;7.40;;;5.30;89.80;;;;;;4313665;33;20149;-64
2021/01/10 12:19:57;;;;;;;9.63;7.03;;;5.30;88.70;;;;;;4323157;33;20162;-63
2021/01/10 12:22:23;;;;;;;9.10;6.47;;;5.20;86.80;;;;;;4313506;33;20157;-62
2021/01/10 12:24:53;;;;;;;10.27;6.07;;;5.20;87.30;;;;;;4311904;33;20259;-62
2021/01/10 12:27:20;;;;;;;10.83;6.53;;;5.00;87.00;;;;;;4313562;33;20594;-61
2021/01/10 12:29:51;;;;;;;9.13;6.57;;;4.90;88.20;;;;;;4316046;33;20553;-62
2021/01/10 12:32:20;;;;;;;12.33;7.00;;;4.80;88.00;;;;;;4313459;33;21018;-61
2021/01/10 12:34:52;;;;;;;15.10;7.47;;;4.80;88.90;;;;;;4314412;33;20536;-62
2021/01/10 12:37:26;;;;;;;8.67;7.23;;;4.90;88.80;;;;;;4314766;33;20584;-62
2021/01/10 12:42:46;;;;;;;10.90;6.67;;;5.30;88.00;;;;;;4311860;33;20167;-62
2021/01/10 12:45:17;;;;;;;13.63;7.20;;;5.30;88.10;;;;;;4311275;33;20305;-62
2021/01/10 12:48:14;;;;;;;11.33;7.63;;;5.50;87.60;;;;;;4312698;33;20369;-62
2021/01/10 12:50:44;;;;;;;11.57;6.77;;;5.60;87.10;;;;;;4312287;33;20192;-64
2021/01/10 12:53:14;;;;;;;14.27;7.17;;;5.60;86.60;;;;;;4317904;33;20233;-62
2021/01/10 12:55:43;;;;;;;11.97;8.17;;;5.50;85.20;;;;;;4314657;33;20335;-62
2021/01/10 12:58:25;;;;;;;12.13;7.40;;;5.30;85.80;;;;;;4312512;33;20240;-62
2021/01/10 13:00:54;;;;;;;18.00;7.97;;;5.10;87.40;;;;;;4314874;33;20183;-62
2021/01/10 13:03:26;;;;;;;10.67;8.10;;;5.00;88.20;;;;;;4314476;33;20149;-63
2021/01/10 13:05:57;;;;;;;9.70;7.13;;;5.10;88.40;;;;;;4309592;33;20235;-63
2021/01/10 13:08:32;;;;;;;12.70;8.33;;;5.10;86.70;;;;;;4308527;33;20323;-63
2021/01/10 13:11:00;;;;;;;12.30;7.47;;;5.10;87.20;;;;;;4313458;33;20173;-63
2021/01/10 13:13:30;;;;;;;9.30;6.90;;;5.10;87.10;;;;;;4312772;33;20571;-63
2021/01/10 13:16:01;;;;;;;9.37;6.53;;;5.20;85.70;;;;;;4308471;33;20153;-63
2021/01/10 13:18:30;;;;;;;13.27;7.67;;;5.20;85.40;;;;;;4312793;33;20173;-63